Time;durP1;ratioP1;P1;durP2;ratioP2;P2;SDS_P1;SDS_P2;PMS_P1;PMS_P2;Temp;Humidity;BMP_temperature;BMP_pressure;BME280_temperature;BME280_humidity;BME280_pressure;Samples;Min_cycle;Max_cycle;Signal;HPM_P1;HPM_P2
2022/07/04 00:01:42;;;;;;;3.60;3.30;;;16.70;97.00;;;;;;4934876;28;101661;-69
2022/07/04 00:04:09;;;;;;;5.05;4.10;;;16.70;97.10;;;;;;4952976;28;99078;-69
2022/07/04 00:06:36;;;;;;;7.50;4.03;;;16.60;97.10;;;;;;4935601;28;98546;-69
2022/07/04 00:09:04;;;;;;;5.32;4.82;;;16.60;97.10;;;;;;4935118;28;99520;-69
2022/07/04 00:11:31;;;;;;;4.07;3.65;;;16.50;97.20;;;;;;4935456;28;98994;-69
2022/07/04 00:13:58;;;;;;;5.50;5.00;;;16.60;97.30;;;;;;4935286;28;98698;-69
2022/07/04 00:16:24;;;;;;;7.65;4.68;;;16.60;97.30;;;;;;4935306;28;98574;-69
2022/07/04 00:18:51;;;;;;;6.60;4.15;;;16.50;97.40;;;;;;4934420;28;102316;-69
2022/07/04 00:21:18;;;;;;;6.53;3.92;;;16.50;97.50;;;;;;4952153;28;99477;-69
2022/07/04 00:23:45;;;;;;;4.43;4.07;;;16.40;97.50;;;;;;4919242;28;98977;-69
2022/07/04 00:26:12;;;;;;;7.22;5.30;;;16.40;97.50;;;;;;4935151;28;98536;-69
2022/07/04 00:28:39;;;;;;;4.65;3.70;;;16.40;97.60;;;;;;4934671;28;101784;-69
2022/07/04 00:31:06;;;;;;;4.93;4.10;;;16.30;97.60;;;;;;4934952;28;99211;-69
2022/07/04 00:33:33;;;;;;;5.13;3.38;;;16.30;97.60;;;;;;4952510;28;98559;-69
2022/07/04 00:36:00;;;;;;;5.43;4.47;;;16.30;97.60;;;;;;4952839;28;97823;-69
2022/07/04 00:38:28;;;;;;;4.80;4.03;;;16.20;97.60;;;;;;4934392;28;101962;-69
2022/07/04 00:40:55;;;;;;;5.63;4.00;;;16.20;97.60;;;;;;4952287;28;99082;-69
2022/07/04 00:43:26;;;;;;;5.55;5.07;;;16.20;97.60;;;;;;4952218;28;99776;-69
2022/07/04 00:45:54;;;;;;;4.78;4.43;;;16.20;97.60;;;;;;4952756;28;98511;-69
2022/07/04 00:48:21;;;;;;;4.40;3.40;;;16.10;97.60;;;;;;4952099;28;99568;-69
2022/07/04 00:50:49;;;;;;;3.38;3.17;;;16.10;97.60;;;;;;4952205;28;99050;-69
2022/07/04 00:53:21;;;;;;;4.15;3.47;;;16.10;97.70;;;;;;4951973;28;98637;-69
2022/07/04 00:55:49;;;;;;;4.28;3.88;;;16.10;97.70;;;;;;4952673;28;98609;-69
2022/07/04 00:58:20;;;;;;;3.95;3.58;;;16.00;97.60;;;;;;4933946;28;102198;-69
2022/07/04 01:00:47;;;;;;;6.97;5.18;;;16.00;97.60;;;;;;4919003;28;101537;-69
2022/07/04 01:03:14;;;;;;;5.53;4.93;;;15.90;97.60;;;;;;4952285;28;98549;-69
2022/07/04 01:05:42;;;;;;;4.85;3.85;;;15.90;97.60;;;;;;4952049;28;98557;-69
2022/07/04 01:08:09;;;;;;;4.07;3.78;;;15.90;97.60;;;;;;4953750;28;100075;-69
2022/07/04 01:10:36;;;;;;;7.07;5.13;;;15.90;97.70;;;;;;4955357;28;99865;-69
2022/07/04 01:13:03;;;;;;;5.63;3.90;;;15.80;97.60;;;;;;4954936;28;104172;-69
2022/07/04 01:15:30;;;;;;;6.85;4.28;;;15.80;97.70;;;;;;4937980;28;98585;-69
2022/07/04 01:17:57;;;;;;;5.03;3.92;;;15.70;97.70;;;;;;4955382;28;99315;-69
2022/07/04 01:20:24;;;;;;;6.47;4.03;;;15.70;97.70;;;;;;4937350;28;98967;-69
2022/07/04 01:22:51;;;;;;;5.10;4.60;;;15.70;97.70;;;;;;4921923;28;98475;-69
2022/07/04 01:25:18;;;;;;;4.95;4.43;;;15.70;97.70;;;;;;4955983;28;97848;-69
2022/07/04 01:27:45;;;;;;;5.05;3.78;;;15.60;98.00;;;;;;4937835;28;99958;-69
2022/07/04 01:30:13;;;;;;;8.60;4.03;;;15.60;97.80;;;;;;4937552;28;98922;-69
2022/07/04 01:32:41;;;;;;;4.32;4.00;;;15.60;97.70;;;;;;4937512;28;99212;-69
2022/07/04 01:35:10;;;;;;;5.82;5.40;;;15.50;97.70;;;;;;4955220;28;98624;-69
2022/07/04 01:37:37;;;;;;;5.43;4.47;;;15.50;97.60;;;;;;4921506;28;101862;-69
2022/07/04 01:40:05;;;;;;;5.63;5.13;;;15.50;97.60;;;;;;4937213;28;101687;-69
2022/07/04 01:42:32;;;;;;;5.22;4.80;;;15.40;97.60;;;;;;4937624;28;98519;-69
2022/07/04 01:44:58;;;;;;;6.15;4.07;;;15.40;97.60;;;;;;4937610;28;98567;-69
2022/07/04 01:47:26;;;;;;;5.93;4.10;;;15.40;97.70;;;;;;4921057;28;99262;-69
2022/07/04 01:49:53;;;;;;;4.53;4.05;;;15.30;97.70;;;;;;4937327;28;109581;-69
2022/07/04 01:52:20;;;;;;;4.82;4.43;;;15.30;97.70;;;;;;4937352;28;98658;-69
2022/07/04 01:54:47;;;;;;;5.72;3.83;;;15.30;97.70;;;;;;4954964;28;98600;-69
2022/07/04 01:57:14;;;;;;;8.27;3.95;;;15.20;97.70;;;;;;4953760;28;100115;-69
2022/07/04 02:02:26;;;;;;;5.57;5.07;;;15.20;97.90;;;;;;4955057;28;98621;-69
2022/07/04 02:04:53;;;;;;;5.63;4.43;;;15.20;98.00;;;;;;4937724;28;98554;-69
2022/07/04 02:07:20;;;;;;;5.55;5.05;;;15.10;98.10;;;;;;4954408;28;99392;-69
2022/07/04 02:09:47;;;;;;;5.45;4.82;;;15.10;98.20;;;;;;4937028;28;101563;-69
2022/07/04 02:15:00;;;;;;;8.32;6.20;;;15.00;98.40;;;;;;4937617;28;98362;-69
2022/07/04 02:17:27;;;;;;;6.43;4.70;;;15.00;98.50;;;;;;4954107;28;99139;-69
2022/07/04 02:19:54;;;;;;;5.88;5.32;;;15.00;98.60;;;;;;4954299;28;99114;-69
2022/07/04 02:22:21;;;;;;;6.47;5.35;;;14.90;98.70;;;;;;4954458;28;99143;-69
2022/07/04 02:24:48;;;;;;;7.18;5.40;;;14.90;98.70;;;;;;4937642;28;98893;-69
2022/07/04 02:27:15;;;;;;;7.25;6.65;;;14.90;98.80;;;;;;4954094;28;99423;-69
2022/07/04 02:29:42;;;;;;;6.93;6.38;;;14.90;98.80;;;;;;4936800;28;102572;-69
2022/07/04 02:32:09;;;;;;;6.90;6.25;;;14.90;98.90;;;;;;4954555;28;98393;-69
2022/07/04 02:34:36;;;;;;;8.32;7.47;;;14.90;98.90;;;;;;4936812;28;98538;-69
2022/07/04 02:37:03;;;;;;;8.07;7.32;;;14.90;98.90;;;;;;4936804;28;99331;-69
2022/07/04 02:39:31;;;;;;;7.10;6.40;;;14.90;99.00;;;;;;4936428;28;101553;-69
2022/07/04 02:41:58;;;;;;;7.32;6.45;;;14.90;99.10;;;;;;4937162;28;99289;-69
2022/07/04 02:44:25;;;;;;;6.78;6.15;;;14.90;99.10;;;;;;4936675;28;98609;-69
2022/07/04 02:46:52;;;;;;;8.18;7.38;;;14.90;99.20;;;;;;4953895;28;100060;-69
2022/07/04 02:49:19;;;;;;;7.70;6.82;;;14.90;99.30;;;;;;4936101;28;102474;-69
2022/07/04 02:51:46;;;;;;;7.43;6.82;;;14.90;99.30;;;;;;4936791;28;99136;-69
2022/07/04 02:54:13;;;;;;;7.93;7.10;;;14.90;99.30;;;;;;4936124;28;98577;-69
2022/07/04 02:56:40;;;;;;;7.72;7.03;;;14.90;99.30;;;;;;4953807;28;99293;-69
2022/07/04 02:59:07;;;;;;;10.35;6.60;;;14.80;99.30;;;;;;4953364;28;99028;-69
2022/07/04 03:01:34;;;;;;;8.55;7.75;;;14.80;99.30;;;;;;4954021;28;99051;-69
2022/07/04 03:04:03;;;;;;;8.50;7.70;;;14.80;99.40;;;;;;4936973;28;97905;-69
2022/07/04 03:06:30;;;;;;;6.97;6.38;;;14.80;99.50;;;;;;4953434;28;99350;-69
2022/07/04 03:08:57;;;;;;;8.90;8.20;;;14.80;99.50;;;;;;4935941;28;101542;-69
2022/07/04 03:11:24;;;;;;;8.63;7.85;;;14.80;99.60;;;;;;4919069;28;102212;-69
2022/07/04 03:13:51;;;;;;;9.57;8.43;;;14.80;99.60;;;;;;4936534;28;98595;-69
2022/07/04 03:16:18;;;;;;;8.02;7.22;;;14.80;99.60;;;;;;4935889;28;99397;-69
2022/07/04 03:18:45;;;;;;;8.90;8.02;;;14.80;99.70;;;;;;4936165;28;98931;-69
2022/07/04 03:21:12;;;;;;;8.30;7.57;;;14.80;99.70;;;;;;4953423;28;98437;-69
2022/07/04 03:23:39;;;;;;;11.57;7.85;;;14.80;99.80;;;;;;4919771;28;98645;-69
2022/07/04 03:26:06;;;;;;;9.38;7.57;;;14.80;99.80;;;;;;4953401;28;99348;-69
2022/07/04 03:28:33;;;;;;;9.50;8.48;;;14.80;99.80;;;;;;4935822;28;101605;-69
2022/07/04 03:31:00;;;;;;;9.35;8.55;;;14.80;99.80;;;;;;4953116;28;98418;-69
2022/07/04 03:33:27;;;;;;;8.85;7.70;;;14.80;99.80;;;;;;4953240;28;98471;-69
2022/07/04 03:35:54;;;;;;;9.35;7.38;;;14.80;99.80;;;;;;4934994;28;101022;-69
2022/07/04 03:38:21;;;;;;;9.80;8.90;;;14.80;99.80;;;;;;4903565;28;102298;-69
2022/07/04 03:40:48;;;;;;;9.93;8.80;;;14.80;99.90;;;;;;4953639;28;98544;-69
2022/07/04 03:43:15;;;;;;;9.30;8.40;;;14.80;99.80;;;;;;4953272;28;98810;-69
2022/07/04 03:45:41;;;;;;;9.60;8.70;;;14.80;99.80;;;;;;4919286;28;100980;-69
2022/07/04 03:48:08;;;;;;;9.48;8.68;;;14.80;99.80;;;;;;4935521;28;101761;-69
2022/07/04 03:50:35;;;;;;;10.00;9.02;;;14.80;99.80;;;;;;4953135;28;98692;-69
2022/07/04 03:53:02;;;;;;;10.38;8.43;;;14.80;99.80;;;;;;4953851;28;97851;-69
2022/07/04 03:55:29;;;;;;;9.02;8.13;;;14.90;99.80;;;;;;4935591;28;99227;-69
2022/07/04 03:57:56;;;;;;;11.20;6.53;;;14.90;99.90;;;;;;4935192;28;102172;-69
2022/07/04 04:00:24;;;;;;;8.13;7.43;;;15.30;99.90;;;;;;4935953;28;99328;-69
2022/07/04 04:02:51;;;;;;;8.88;6.32;;;16.00;99.30;;;;;;4935254;28;98567;-69
2022/07/04 04:05:27;;;;;;;6.50;6.00;;;16.70;98.40;;;;;;4935129;28;102616;-69
2022/07/04 04:07:56;;;;;;;6.50;5.90;;;17.40;97.30;;;;;;4919230;28;101527;-69
2022/07/04 04:10:24;;;;;;;8.18;7.03;;;17.80;96.20;;;;;;4953515;28;98935;-69
2022/07/04 04:12:51;;;;;;;6.82;6.30;;;18.00;95.70;;;;;;4952917;28;99224;-70
2022/07/04 04:15:18;;;;;;;7.75;7.13;;;18.00;95.50;;;;;;4935335;28;99326;-69
2022/07/04 04:17:45;;;;;;;7.03;6.20;;;17.90;95.40;;;;;;4952381;28;99027;-70
2022/07/04 04:20:12;;;;;;;10.48;7.03;;;17.80;95.50;;;;;;4935533;28;98462;-69
2022/07/04 04:22:39;;;;;;;9.55;8.52;;;17.70;95.70;;;;;;4919458;28;99290;-69
2022/07/04 04:25:07;;;;;;;8.63;7.93;;;17.70;95.70;;;;;;4934803;28;105349;-69
2022/07/04 04:27:34;;;;;;;11.60;7.97;;;17.70;95.70;;;;;;4934938;28;99812;-69
2022/07/04 04:30:01;;;;;;;8.15;7.05;;;17.60;95.70;;;;;;4953122;28;99070;-69
2022/07/04 04:32:28;;;;;;;8.82;7.90;;;17.50;95.90;;;;;;4952977;28;98517;-69
2022/07/04 04:34:55;;;;;;;10.02;8.77;;;17.50;95.90;;;;;;4952279;28;99325;-70
2022/07/04 04:37:22;;;;;;;8.52;7.82;;;17.50;95.90;;;;;;4952495;28;99117;-69
2022/07/04 04:39:49;;;;;;;9.15;7.30;;;17.40;96.10;;;;;;4935479;28;98684;-69
2022/07/04 04:42:16;;;;;;;9.50;8.68;;;17.40;96.20;;;;;;4938268;28;97897;-69
2022/07/04 04:44:43;;;;;;;9.82;8.10;;;17.30;96.40;;;;;;4955664;28;99481;-69
2022/07/04 04:47:10;;;;;;;10.75;8.07;;;17.30;96.50;;;;;;4955945;28;98952;-69
2022/07/04 04:49:37;;;;;;;8.52;7.57;;;17.20;96.60;;;;;;4955708;28;99575;-70
2022/07/04 04:52:05;;;;;;;9.80;8.60;;;17.20;96.70;;;;;;4956306;28;98505;-69
2022/07/04 04:54:33;;;;;;;8.45;7.50;;;17.20;96.80;;;;;;4921898;28;101997;-69
2022/07/04 04:57:01;;;;;;;10.82;9.43;;;17.20;97.00;;;;;;4955624;28;99037;-69
2022/07/04 04:59:29;;;;;;;9.50;8.65;;;17.20;97.10;;;;;;4955889;28;98535;-70
2022/07/04 05:01:59;;;;;;;9.18;8.25;;;17.20;97.10;;;;;;4955562;28;99170;-69
2022/07/04 05:04:26;;;;;;;10.52;8.20;;;17.30;97.20;;;;;;4955160;28;112720;-70
2022/07/04 05:06:53;;;;;;;10.60;8.25;;;17.30;97.30;;;;;;4955801;28;99313;-69
2022/07/04 05:09:20;;;;;;;10.13;8.23;;;17.40;97.60;;;;;;4955860;28;98569;-69
2022/07/04 05:11:48;;;;;;;8.35;7.55;;;17.50;97.40;;;;;;4937879;28;98579;-69
2022/07/04 05:14:15;;;;;;;7.60;6.78;;;17.60;97.50;;;;;;4937694;28;100749;-70
2022/07/04 05:16:43;;;;;;;9.55;8.10;;;17.80;97.50;;;;;;4955319;28;100006;-69
2022/07/04 05:19:10;;;;;;;8.75;7.85;;;17.80;97.40;;;;;;4938133;28;98517;-69
2022/07/04 05:21:37;;;;;;;8.50;7.63;;;17.90;97.40;;;;;;4938889;28;99422;-69
2022/07/04 05:24:05;;;;;;;10.50;9.40;;;18.00;97.30;;;;;;4955475;28;99242;-69
2022/07/04 05:26:32;;;;;;;11.48;9.10;;;18.00;97.30;;;;;;4937506;28;100298;-70
2022/07/04 05:28:59;;;;;;;14.77;8.55;;;18.10;97.30;;;;;;4955512;28;98609;-70
2022/07/04 05:31:26;;;;;;;11.88;10.25;;;18.10;97.20;;;;;;4955973;28;97845;-69
2022/07/04 05:33:54;;;;;;;13.07;11.77;;;18.20;97.20;;;;;;4937078;28;99215;-69
2022/07/04 05:36:23;;;;;;;11.45;10.25;;;18.30;97.10;;;;;;4937152;28;99084;-70
2022/07/04 05:38:54;;;;;;;;;;;18.30;97.10;;;;;;4921752;28;99558;-69
2022/07/04 05:41:21;;;;;;;13.75;9.70;;;18.30;97.10;;;;;;4956550;28;98500;-69
2022/07/04 05:43:48;;;;;;;13.27;9.68;;;18.40;97.20;;;;;;4954870;28;99308;-69
2022/07/04 05:46:18;;;;;;;10.38;9.50;;;18.70;97.40;;;;;;4954902;28;100001;-69
2022/07/04 05:48:45;;;;;;;9.57;8.57;;;18.90;96.90;;;;;;4937435;28;98521;-70
2022/07/04 05:51:12;;;;;;;11.43;10.27;;;19.10;96.50;;;;;;4937837;28;98745;-69
2022/07/04 05:53:39;;;;;;;10.75;9.20;;;19.30;96.30;;;;;;4935941;28;101885;-70
2022/07/04 05:56:06;;;;;;;10.07;8.27;;;19.50;96.10;;;;;;4954868;28;99154;-69
2022/07/04 05:58:33;;;;;;;9.13;7.75;;;19.60;96.00;;;;;;4954843;28;98949;-69
2022/07/04 06:01:00;;;;;;;10.45;7.63;;;19.70;95.80;;;;;;4937345;28;99460;-69
2022/07/04 06:03:27;;;;;;;9.52;8.13;;;19.80;95.80;;;;;;4954524;28;100004;-69
2022/07/04 06:05:54;;;;;;;7.95;7.18;;;19.80;95.80;;;;;;4937038;28;102407;-69
2022/07/04 06:08:21;;;;;;;8.93;7.15;;;20.00;95.60;;;;;;4954907;28;98441;-70
2022/07/04 06:10:48;;;;;;;9.68;7.03;;;20.20;95.40;;;;;;4921322;28;98932;-70
2022/07/04 06:13:15;;;;;;;9.05;8.25;;;20.50;95.00;;;;;;4936796;28;102209;-69
2022/07/04 06:15:42;;;;;;;9.15;7.25;;;20.60;94.70;;;;;;4954522;28;99037;-70
2022/07/04 06:18:09;;;;;;;8.25;7.25;;;20.70;94.70;;;;;;4936757;28;98584;-69
2022/07/04 06:20:36;;;;;;;11.23;9.15;;;20.80;94.60;;;;;;4955055;28;97755;-70
2022/07/04 06:23:03;;;;;;;9.02;7.47;;;20.70;94.60;;;;;;4936319;28;107307;-69
2022/07/04 06:25:30;;;;;;;9.75;7.13;;;20.70;94.60;;;;;;4936337;28;101720;-70
2022/07/04 06:27:57;;;;;;;10.20;6.63;;;20.70;94.60;;;;;;4936437;28;99277;-69
2022/07/04 06:30:24;;;;;;;6.78;6.20;;;20.70;94.60;;;;;;4936502;28;98600;-70
2022/07/04 06:32:56;;;;;;;7.72;6.43;;;20.60;94.60;;;;;;4953984;28;99408;-70
2022/07/04 06:38:28;;;;;;;8.35;6.05;;;20.70;94.80;;;;;;4954649;28;98955;-70
2022/07/04 06:40:56;;;;;;;;;;;20.90;94.70;;;;;;4937617;28;98564;-70
2022/07/04 06:43:24;;;;;;;7.80;4.95;;;21.10;94.50;;;;;;4937650;28;99490;-70
2022/07/04 06:45:51;;;;;;;7.05;5.18;;;21.40;94.20;;;;;;4904663;28;99093;-70
2022/07/04 06:48:19;;;;;;;6.95;4.93;;;21.70;93.70;;;;;;4937016;28;98608;-70
2022/07/04 06:50:46;;;;;;;10.25;5.38;;;22.00;93.10;;;;;;4936674;28;98647;-70
2022/07/04 06:53:12;;;;;;;7.45;4.78;;;22.20;92.70;;;;;;4935920;28;100063;-70
2022/07/04 06:55:42;;;;;;;6.20;4.45;;;22.30;92.20;;;;;;4953793;28;99733;-70
2022/07/04 06:58:09;;;;;;;9.70;4.57;;;22.50;92.00;;;;;;4953347;28;98575;-69
2022/07/04 07:00:36;;;;;;;6.13;4.10;;;22.60;91.60;;;;;;4954115;28;98453;-70
2022/07/04 07:03:04;;;;;;;6.80;3.42;;;22.60;91.50;;;;;;4953772;28;99403;-70
2022/07/04 07:05:31;;;;;;;6.07;4.45;;;22.50;91.20;;;;;;4934909;28;101769;-70
2022/07/04 07:08:18;;;;;;;5.28;3.70;;;22.40;91.20;;;;;;4926512;28;98675;-70
2022/07/04 07:10:45;;;;;;;6.90;3.13;;;22.30;91.30;;;;;;4920898;28;97838;-70
2022/07/04 07:13:13;;;;;;;4.30;2.60;;;22.30;91.30;;;;;;4953535;28;99224;-70
2022/07/04 07:15:40;;;;;;;5.32;3.53;;;22.20;91.40;;;;;;4919498;28;110929;-70
2022/07/04 07:18:08;;;;;;;7.38;2.97;;;22.00;91.40;;;;;;4953389;28;99255;-70
2022/07/04 07:20:35;;;;;;;4.30;3.58;;;22.00;91.50;;;;;;4953869;28;98497;-70
2022/07/04 07:23:03;;;;;;;4.28;3.45;;;22.00;91.40;;;;;;4935832;28;99225;-70
2022/07/04 07:25:30;;;;;;;5.47;2.88;;;22.00;91.30;;;;;;4953384;28;99122;-70
2022/07/04 07:27:58;;;;;;;4.90;3.53;;;22.00;91.30;;;;;;4936267;28;98548;-70
2022/07/04 07:30:25;;;;;;;6.55;3.92;;;22.00;91.40;;;;;;4936382;28;98537;-70
2022/07/04 07:32:52;;;;;;;5.20;4.03;;;22.10;91.30;;;;;;4935965;28;98611;-70
2022/07/04 07:35:19;;;;;;;6.85;3.80;;;22.10;91.40;;;;;;4953782;28;98947;-70
2022/07/04 07:37:46;;;;;;;6.15;4.28;;;22.10;91.50;;;;;;4954058;28;98994;-70
2022/07/04 07:40:12;;;;;;;6.43;4.07;;;22.20;91.60;;;;;;4919792;28;98597;-70
2022/07/04 07:42:39;;;;;;;6.63;3.75;;;22.20;91.70;;;;;;4952837;28;100020;-70
2022/07/04 07:45:07;;;;;;;6.38;3.80;;;22.30;91.60;;;;;;4919442;28;102242;-70
2022/07/04 07:47:34;;;;;;;7.13;4.97;;;22.50;91.50;;;;;;4936360;28;98698;-70
2022/07/04 07:50:03;;;;;;;9.95;4.65;;;22.60;91.40;;;;;;4953433;28;98566;-70
2022/07/04 07:52:30;;;;;;;5.18;4.05;;;22.90;91.20;;;;;;4952910;28;99283;-70
2022/07/04 07:54:57;;;;;;;7.38;3.88;;;23.20;90.90;;;;;;4935482;28;103957;-70
2022/07/04 07:57:26;;;;;;;8.05;4.63;;;23.50;90.70;;;;;;4936121;28;98632;-70
2022/07/04 07:59:54;;;;;;;9.73;4.07;;;23.80;90.30;;;;;;4920103;28;98097;-70
2022/07/04 08:04:34;;;;;;;7.47;3.72;;;24.00;89.80;;;;;;4952667;28;99221;-70
2022/07/04 08:05:12;;;;;;;7.32;5.40;;;24.10;89.60;;;;;;4953002;28;99130;-70
2022/07/04 08:07:41;;;;;;;;;;;24.30;89.40;;;;;;4920239;28;99177;-70
2022/07/04 08:10:08;;;;;;;6.18;4.10;;;24.50;88.30;;;;;;4954389;28;98537;-70
2022/07/04 08:12:36;;;;;;;6.20;4.13;;;25.10;88.40;;;;;;4935256;28;103904;-70
2022/07/04 08:15:03;;;;;;;6.63;4.07;;;25.90;85.90;;;;;;4952517;28;98875;-70
2022/07/04 08:17:33;;;;;;;8.32;3.72;;;26.50;83.60;;;;;;4956284;28;98548;-70
2022/07/04 08:20:02;;;;;;;4.68;3.28;;;26.90;82.70;;;;;;4956534;28;98524;-71
2022/07/04 08:22:29;;;;;;;5.63;3.83;;;27.20;80.80;;;;;;4956279;28;99422;-70
2022/07/04 08:24:56;;;;;;;6.07;4.07;;;27.60;79.40;;;;;;4939212;28;99073;-70
2022/07/04 08:27:23;;;;;;;4.80;2.80;;;27.90;78.00;;;;;;4938994;28;98527;-70
2022/07/04 08:29:57;;;;;;;5.18;3.83;;;28.30;76.80;;;;;;4956425;28;99049;-70
2022/07/04 08:32:24;;;;;;;5.82;3.20;;;28.80;75.40;;;;;;4937782;28;102627;-70
2022/07/04 08:34:52;;;;;;;6.32;2.53;;;29.50;73.50;;;;;;4956221;28;99825;-70
2022/07/04 08:37:19;;;;;;;5.55;3.15;;;30.00;70.70;;;;;;4956119;28;98598;-70
2022/07/04 08:39:46;;;;;;;6.30;2.38;;;30.30;68.90;;;;;;4956430;28;98513;-70
2022/07/04 08:42:17;;;;;;;8.98;2.53;;;30.20;67.50;;;;;;4921908;28;100360;-70
2022/07/04 08:44:50;;;;;;;5.53;2.40;;;30.20;67.10;;;;;;4938269;28;102159;-70
2022/07/04 08:47:22;;;;;;;4.10;2.97;;;30.00;66.80;;;;;;4956360;28;98569;-70
2022/07/04 08:50:03;;;;;;;6.57;2.50;;;29.60;67.40;;;;;;4956786;28;97681;-70
2022/07/04 08:52:39;;;;;;;6.03;2.50;;;29.10;67.60;;;;;;4938148;28;100394;-70
2022/07/04 09:00:39;;;;;;;6.03;2.35;;;29.00;69.40;;;;;;4935167;28;98621;-71
2022/07/04 09:03:07;;;;;;;4.65;3.95;;;29.70;68.10;;;;;;4934728;28;101790;-71
2022/07/04 09:05:35;;;;;;;5.47;2.63;;;30.50;65.80;;;;;;4934933;28;99081;-71
2022/07/04 09:08:03;;;;;;;4.10;2.13;;;31.20;63.90;;;;;;4936971;28;99041;-71
2022/07/04 09:10:31;;;;;;;4.65;2.92;;;31.70;62.50;;;;;;4935048;28;98567;-70
2022/07/04 09:12:58;;;;;;;5.10;2.30;;;31.90;61.30;;;;;;4934761;28;99384;-71
2022/07/04 09:15:42;;;;;;;4.35;2.53;;;32.00;59.00;;;;;;4935417;28;98993;-71
2022/07/04 09:18:32;;;;;;;4.15;3.00;;;32.00;58.10;;;;;;4936178;28;98526;-70
2022/07/04 09:21:08;;;;;;;5.03;2.45;;;32.00;57.70;;;;;;4936769;28;98453;-71
2022/07/04 09:23:40;;;;;;;5.05;1.88;;;31.60;56.80;;;;;;4935444;28;100108;-70
2022/07/04 09:26:19;;;;;;;6.38;3.35;;;31.20;58.00;;;;;;4935783;28;100184;-70
2022/07/04 09:28:54;;;;;;;3.28;2.13;;;31.00;58.80;;;;;;4935331;28;98624;-70
2022/07/04 09:31:23;;;;;;;2.90;1.80;;;30.70;59.20;;;;;;4934378;28;98510;-70
2022/07/04 09:33:51;;;;;;;2.67;2.45;;;30.50;58.90;;;;;;4935856;28;99404;-70
2022/07/04 09:36:21;;;;;;;2.97;2.20;;;30.30;59.30;;;;;;4917639;28;112045;-70
2022/07/04 09:39:12;;;;;;;2.88;2.38;;;30.30;59.50;;;;;;4934412;28;98619;-70
2022/07/04 09:42:00;;;;;;;3.60;2.08;;;30.20;59.10;;;;;;4936538;28;97657;-70
2022/07/04 09:44:45;;;;;;;2.75;1.50;;;29.90;58.40;;;;;;4935321;28;100722;-71
2022/07/04 09:47:27;;;;;;;3.00;1.35;;;29.50;58.70;;;;;;4934259;28;101705;-71
2022/07/04 09:50:10;;;;;;;2.67;2.47;;;29.20;58.80;;;;;;4935659;28;99183;-71
2022/07/04 09:52:48;;;;;;;3.40;2.20;;;28.70;60.30;;;;;;4935937;28;98463;-71
2022/07/04 09:55:22;;;;;;;3.03;1.80;;;28.40;60.90;;;;;;4935049;28;99311;-71
2022/07/04 09:57:50;;;;;;;4.38;2.63;;;28.20;61.70;;;;;;4940159;28;99190;-72
2022/07/04 10:00:29;;;;;;;2.97;1.50;;;28.00;62.30;;;;;;4937526;28;98524;-71
2022/07/04 10:03:14;;;;;;;2.97;1.40;;;27.90;62.50;;;;;;4955131;28;98607;-71
2022/07/04 10:05:41;;;;;;;4.18;2.00;;;27.80;63.40;;;;;;4954998;28;99232;-71
2022/07/04 10:08:08;;;;;;;2.75;2.53;;;27.70;63.40;;;;;;4937090;28;101587;-77
2022/07/04 10:10:39;;;;;;;4.30;1.73;;;27.60;63.10;;;;;;4937124;28;98567;-72
2022/07/04 10:13:08;;;;;;;4.75;1.70;;;27.50;62.70;;;;;;4937153;28;98583;-72
2022/07/04 10:15:38;;;;;;;3.70;1.52;;;27.40;63.70;;;;;;4953802;28;100070;-72
2022/07/04 10:18:06;;;;;;;4.85;2.75;;;27.30;63.90;;;;;;4954499;28;99677;-72
2022/07/04 10:20:33;;;;;;;3.00;1.90;;;27.20;64.20;;;;;;4954323;28;98567;-72
2022/07/04 10:23:01;;;;;;;3.42;2.45;;;27.10;64.40;;;;;;4954916;28;98618;-72
2022/07/04 10:25:29;;;;;;;4.40;2.08;;;27.10;64.30;;;;;;4954063;28;99340;-72
2022/07/04 10:27:56;;;;;;;2.88;1.45;;;27.10;63.80;;;;;;4954215;28;99436;-72
2022/07/04 10:30:29;;;;;;;2.95;1.88;;;27.20;64.40;;;;;;4937233;28;98493;-72
2022/07/04 10:33:00;;;;;;;4.00;1.73;;;27.30;64.20;;;;;;4954753;28;97810;-72
2022/07/04 10:35:45;;;;;;;2.75;1.80;;;27.40;63.70;;;;;;4954089;28;99225;-72
2022/07/04 10:38:14;;;;;;;2.20;1.63;;;27.40;62.00;;;;;;4936864;28;99310;-72
2022/07/04 10:40:48;;;;;;;3.40;1.67;;;27.30;62.30;;;;;;4953654;28;99892;-72
2022/07/04 10:43:24;;;;;;;3.42;1.98;;;27.20;62.00;;;;;;4954495;28;98564;-72
2022/07/04 10:45:52;;;;;;;1.88;1.27;;;27.30;61.70;;;;;;4936893;28;99249;-72
2022/07/04 10:48:23;;;;;;;2.70;1.63;;;27.30;62.20;;;;;;4936412;28;113148;-72
2022/07/04 10:51:06;;;;;;;3.58;2.03;;;27.70;62.50;;;;;;4954602;28;98560;-72
2022/07/04 10:54:00;;;;;;;2.63;1.70;;;28.00;61.80;;;;;;4954285;28;98576;-72
2022/07/04 10:56:27;;;;;;;2.50;2.22;;;28.20;61.60;;;;;;4935902;28;102049;-72
2022/07/04 10:59:01;;;;;;;1.42;1.20;;;28.30;60.30;;;;;;4936627;28;99104;-72
2022/07/04 11:01:28;;;;;;;2.25;1.63;;;28.30;58.10;;;;;;4937489;28;98564;-71
2022/07/04 11:03:55;;;;;;;3.13;1.92;;;28.30;58.10;;;;;;4920788;28;98579;-72
2022/07/04 11:06:38;;;;;;;2.92;1.58;;;28.30;58.10;;;;;;4919701;28;102671;-72
2022/07/04 11:09:24;;;;;;;3.35;2.20;;;28.30;58.00;;;;;;4936453;28;99686;-72
2022/07/04 11:12:00;;;;;;;2.42;1.40;;;28.20;58.00;;;;;;4954635;28;98537;-72
2022/07/04 11:14:42;;;;;;;2.47;2.28;;;28.00;58.90;;;;;;4953945;28;98590;-72
2022/07/04 11:17:20;;;;;;;3.15;1.45;;;28.00;60.10;;;;;;4953722;28;99400;-72
2022/07/04 11:19:48;;;;;;;3.38;1.50;;;28.00;60.40;;;;;;4953587;28;99071;-70
2022/07/04 11:22:23;;;;;;;2.28;2.08;;;27.90;59.20;;;;;;4953765;28;98436;-70
2022/07/04 11:24:50;;;;;;;2.47;2.35;;;28.10;60.00;;;;;;4954218;28;98271;-70
2022/07/04 11:27:17;;;;;;;1.67;1.55;;;28.10;58.50;;;;;;4935857;28;99431;-70
2022/07/04 11:29:54;;;;;;;2.35;1.48;;;28.10;58.40;;;;;;4935704;28;99266;-71
2022/07/04 11:32:30;;;;;;;2.55;1.40;;;28.20;58.70;;;;;;4936253;28;99852;-72
2022/07/04 11:34:57;;;;;;;2.65;1.30;;;28.00;59.00;;;;;;4935720;28;98615;-72
2022/07/04 11:37:24;;;;;;;2.47;2.17;;;27.90;58.90;;;;;;4953209;28;99469;-72
2022/07/04 11:45:02;;;;;;;2.45;1.40;;;27.80;58.90;;;;;;4935161;28;99112;-72
2022/07/04 11:45:50;;;;;;;2.20;1.60;;;27.90;59.70;;;;;;4953286;28;98471;-72
2022/07/04 11:48:24;;;;;;;3.03;2.83;;;27.90;58.80;;;;;;4935392;28;102817;-72
2022/07/04 11:50:51;;;;;;;4.10;1.73;;;28.00;59.40;;;;;;4934721;28;101758;-72
2022/07/04 11:53:18;;;;;;;2.72;2.42;;;28.10;58.60;;;;;;4935357;28;104027;-71
2022/07/04 11:55:57;;;;;;;1.52;1.35;;;28.30;58.60;;;;;;4952947;28;98569;-72
2022/07/04 11:58:24;;;;;;;1.67;1.23;;;28.50;58.80;;;;;;4952265;28;100140;-72
2022/07/04 12:00:52;;;;;;;2.03;1.83;;;28.60;58.50;;;;;;4952751;28;99722;-72
2022/07/04 12:03:18;;;;;;;3.35;1.92;;;28.90;58.40;;;;;;4919533;28;98578;-72
2022/07/04 12:05:46;;;;;;;1.42;1.33;;;29.00;58.00;;;;;;4935685;28;98585;-72
2022/07/04 12:08:13;;;;;;;3.00;2.80;;;29.00;57.30;;;;;;4952746;28;99461;-72
2022/07/04 12:10:55;;;;;;;1.63;1.53;;;28.80;56.60;;;;;;4952689;28;100489;-72
2022/07/04 12:13:22;;;;;;;1.98;1.77;;;28.50;56.10;;;;;;4919260;28;98607;-72
2022/07/04 12:15:52;;;;;;;3.22;1.50;;;28.40;56.10;;;;;;4953066;28;97767;-72
2022/07/04 12:18:33;;;;;;;2.10;1.60;;;28.30;56.60;;;;;;4935530;28;100261;-72
2022/07/04 12:21:17;;;;;;;3.53;1.75;;;28.20;57.00;;;;;;4952762;28;99055;-72
2022/07/04 12:23:54;;;;;;;2.35;2.10;;;28.20;56.30;;;;;;4934548;28;100166;-72
2022/07/04 12:26:47;;;;;;;3.08;2.78;;;28.10;56.10;;;;;;4937716;28;98492;-72
2022/07/04 12:29:22;;;;;;;2.05;1.85;;;28.10;55.10;;;;;;4935183;28;99330;-72
2022/07/04 12:31:53;;;;;;;2.58;1.40;;;28.10;55.70;;;;;;4935759;28;99066;-72
2022/07/04 12:34:20;;;;;;;2.63;1.23;;;28.20;55.60;;;;;;4952719;28;98547;-72
2022/07/04 12:36:52;;;;;;;3.15;1.15;;;28.20;56.70;;;;;;4952279;28;98517;-72
2022/07/04 12:39:33;;;;;;;2.35;1.17;;;28.10;55.00;;;;;;4918722;28;101846;-72
2022/07/04 12:42:19;;;;;;;2.67;1.92;;;28.10;55.40;;;;;;4952878;28;99092;-72
2022/07/04 12:44:49;;;;;;;2.92;1.92;;;28.00;55.40;;;;;;4935114;28;98491;-72
2022/07/04 12:47:17;;;;;;;3.80;2.78;;;27.90;54.60;;;;;;4935045;28;98653;-72
2022/07/04 12:49:59;;;;;;;1.90;1.70;;;28.00;55.20;;;;;;4951906;28;100067;-72
2022/07/04 12:52:29;;;;;;;2.60;1.13;;;28.10;55.00;;;;;;4918567;28;102129;-72
2022/07/04 12:55:09;;;;;;;1.52;1.00;;;28.20;54.50;;;;;;4934447;28;98641;-72
2022/07/04 12:57:36;;;;;;;1.67;1.20;;;28.40;54.90;;;;;;4934689;28;98704;-72
2022/07/04 13:00:04;;;;;;;2.60;1.25;;;28.50;54.00;;;;;;4918842;28;99711;-72
2022/07/04 13:02:51;;;;;;;4.75;2.03;;;28.70;54.50;;;;;;4935813;28;101636;-72
2022/07/04 13:05:18;;;;;;;2.03;1.58;;;28.80;54.10;;;;;;4955567;28;98514;-71
2022/07/04 13:07:46;;;;;;;0.88;0.88;;;28.80;53.80;;;;;;4938025;28;97817;-72
2022/07/04 13:10:13;;;;;;;2.83;1.67;;;28.80;52.90;;;;;;4955339;28;99348;-72
2022/07/04 13:12:40;;;;;;;1.23;0.90;;;28.60;52.90;;;;;;4955069;28;98525;-72